Friday, May 25, 2018, 8:59 AM EDT
Back to Local

KAVP, Wilkes-barre/scranton International

Location: Pittston, PA, United States Lat: 41.333
Local Time: 8:59 AM EDT (12:59 GMT) Lon: -75.733
Time Zone: US/Eastern Elev: 961 ft

Show me the last for .
Show Coded

Time T Td Feel RH Dir Speed Gust Alt SLP Vis Weather Sky Remarks
2018-05-25 07:54 64 54 - 69 310° 3 - 30.07 30.05 8 CLR 6-hr Min Temp (8am): 51.1°F
6-hr Max Temp (8am): 64.0°F
2018-05-25 06:54 56 53 - 90 - Calm - 30.08 30.06 8 CLR None
2018-05-25 05:54 53 51 - 92 120° 3 - 30.08 30.06 8 CLR None
2018-05-25 04:54 53 51 - 92 - Calm - 30.07 30.05 10 CLR None
2018-05-25 03:54 53 51 - 92 - Calm - 30.07 30.05 10 CLR None
2018-05-25 02:54 55 51 - 86 120° 3 - 30.08 30.06 10 CLR None
2018-05-25 01:54 57 51 - 80 110° 3 - 30.09 30.07 10 CLR 6-hr Min Temp (2am): 57.0°F
6-hr Max Temp (2am): 73.0°F
2018-05-25 00:54 60 50 - 69 110° 6 - 30.10 30.08 10 CLR 24-hr Min Temp (1am): 51.1°F
24-hr Max Temp (1am): 81.0°F
2018-05-24 23:54 61 50 - 67 110° 5 - 30.10 30.08 10 CLR None
2018-05-24 22:54 63 49 - 60 110° 5 - 30.11 30.09 10 CLR None
2018-05-24 21:54 67 49 - 52 110° 6 - 30.10 30.09 10 CLR None
2018-05-24 20:54 67 52 - 58 110° 3 - 30.10 30.08 10 CLR None
2018-05-24 19:54 73 53 76 49 - Calm - 30.09 30.07 10 CLR 6-hr Min Temp (8pm): 73.0°F
6-hr Max Temp (8pm): 81.0°F
2018-05-24 18:54 79 47 - 32 330° 3 - 30.10 30.08 10 CLR None
2018-05-24 17:54 80 47 - 31 310° 8 - 30.10 30.09 10 CLR None
2018-05-24 16:54 80 46 - 30 340° 7 - 30.12 30.10 10 CLR None
2018-05-24 15:54 81 46 - 29 Variable 7 - 30.13 30.11 10 CLR None
2018-05-24 14:54 79 48 - 33 250° 7 - 30.14 30.12 10 CLR None
2018-05-24 13:54 78 45 - 30 Variable 5 - 30.15 30.13 10 CLR 6-hr Min Temp (2pm): 61.0°F
6-hr Max Temp (2pm): 79.0°F
2018-05-24 12:54 75 48 - 38 280° 6 - 30.17 30.16 10 CLR None
2018-05-24 11:54 74 49 76 41 310° 9 - 30.19 30.17 10 CLR None
2018-05-24 10:54 70 47 - 43 250° 5 - 30.19 30.17 10 CLR None
2018-05-24 09:54 66 49 - 54 - Calm - 30.20 30.18 10 CLR None

Support USWX by starting your Amazon purchase here.